Time;durP1;ratioP1;P1;durP2;ratioP2;P2;SDS_P1;SDS_P2;PMS_P1;PMS_P2;Temp;Humidity;BMP_temperature;BMP_pressure;BME280_temperature;BME280_humidity;BME280_pressure;Samples;Min_cycle;Max_cycle;Signal;HPM_P1;HPM_P2
2024/01/31 00:00:36;;;;;;;38.37;35.93;;;;;;;5.47;100.00;102639.25;4969832;28;20486;-45
2024/01/31 00:03:04;;;;;;;40.03;37.07;;;;;;;5.47;100.00;102629.50;4971295;28;20891;-45
2024/01/31 00:05:32;;;;;;;38.63;36.13;;;;;;;5.45;100.00;102652.63;4971380;28;20470;-43
2024/01/31 00:08:00;;;;;;;39.23;37.03;;;;;;;5.43;100.00;102648.41;4972725;28;20505;-43
2024/01/31 00:10:28;;;;;;;37.97;35.47;;;;;;;5.44;100.00;102648.28;4971252;28;20463;-43
2024/01/31 00:12:57;;;;;;;39.30;36.90;;;;;;;5.45;100.00;102657.91;4971452;28;20467;-43
2024/01/31 00:15:25;;;;;;;37.90;35.43;;;;;;;5.50;100.00;102655.75;4971187;28;20490;-43
2024/01/31 00:17:54;;;;;;;39.20;36.90;;;;;;;5.53;100.00;102654.66;4971430;28;20473;-44
2024/01/31 00:20:22;;;;;;;39.37;37.00;;;;;;;5.55;100.00;102666.00;4970594;28;20474;-43
2024/01/31 00:22:50;;;;;;;38.63;36.33;;;;;;;5.53;100.00;102668.75;4971510;28;20451;-43
2024/01/31 00:25:18;;;;;;;38.30;36.37;;;;;;;5.50;100.00;102668.13;4972557;28;20462;-43
2024/01/31 00:27:46;;;;;;;38.17;35.87;;;;;;;5.51;100.00;102669.81;4972247;28;20498;-44
2024/01/31 00:30:16;;;;;;;38.93;36.67;;;;;;;5.49;100.00;102669.97;4971066;28;20965;-43
2024/01/31 00:32:43;;;;;;;38.67;36.57;;;;;;;5.44;100.00;102672.09;4971171;28;20782;-43
2024/01/31 00:35:11;;;;;;;37.20;35.50;;;;;;;5.41;100.00;102674.13;4972019;28;20443;-45
2024/01/31 00:37:39;;;;;;;38.53;36.63;;;;;;;5.41;100.00;102671.47;4971645;28;20938;-43
2024/01/31 00:40:09;;;;;;;38.87;36.87;;;;;;;5.43;100.00;102661.63;4970238;28;20463;-42
2024/01/31 00:42:39;;;;;;;38.47;36.67;;;;;;;5.27;100.00;102676.97;4971786;28;20836;-43
2024/01/31 00:45:07;;;;;;;37.40;35.43;;;;;;;5.20;100.00;102692.44;4972170;28;20485;-42
2024/01/31 00:47:36;;;;;;;42.43;39.50;;;;;;;5.14;100.00;102687.59;4971808;28;20522;-44
2024/01/31 00:50:05;;;;;;;42.37;40.07;;;;;;;5.13;100.00;102707.09;4971885;28;20485;-43
2024/01/31 00:52:33;;;;;;;38.97;36.73;;;;;;;5.09;100.00;102702.97;4971368;28;20465;-44
2024/01/31 00:55:02;;;;;;;40.43;38.20;;;;;;;5.09;100.00;102700.34;4971597;28;20427;-44
2024/01/31 00:57:30;;;;;;;42.87;39.87;;;;;;;5.05;100.00;102693.59;4972172;28;20930;-44
2024/01/31 00:59:57;;;;;;;40.27;38.10;;;;;;;5.02;100.00;102720.25;4971356;28;20778;-43
2024/01/31 01:02:25;;;;;;;39.40;36.97;;;;;;;5.00;100.00;102725.66;4971430;28;20462;-44
2024/01/31 01:04:54;;;;;;;40.90;38.80;;;;;;;5.01;100.00;102726.50;4970743;28;20635;-43
2024/01/31 01:07:22;;;;;;;42.97;40.47;;;;;;;5.03;100.00;102720.16;4972192;28;20435;-43
2024/01/31 01:09:50;;;;;;;41.90;39.40;;;;;;;5.05;100.00;102727.13;4970938;28;20513;-43
2024/01/31 01:12:18;;;;;;;42.70;39.57;;;;;;;5.00;100.00;102732.75;4971148;28;20450;-42
2024/01/31 01:14:46;;;;;;;40.70;38.20;;;;;;;5.07;100.00;102735.78;4973034;28;20965;-42
2024/01/31 01:17:15;;;;;;;41.13;38.30;;;;;;;5.03;100.00;102733.38;4975423;28;20473;-42
2024/01/31 01:19:42;;;;;;;38.83;35.93;;;;;;;5.08;100.00;102745.44;4973409;28;20467;-42
2024/01/31 01:22:12;;;;;;;39.13;35.97;;;;;;;5.05;100.00;102737.72;4975356;28;20493;-42
2024/01/31 01:24:39;;;;;;;40.60;37.80;;;;;;;5.01;100.00;102748.50;4974135;28;20992;-42
2024/01/31 01:27:07;;;;;;;42.50;39.00;;;;;;;5.05;100.00;102764.97;4975955;28;20466;-44
2024/01/31 01:29:39;;;;;;;41.47;38.30;;;;;;;5.02;100.00;102752.81;4971321;28;20505;-44
2024/01/31 01:32:07;;;;;;;39.60;36.97;;;;;;;4.97;100.00;102757.63;4974069;28;20481;-43
2024/01/31 01:34:35;;;;;;;42.67;39.73;;;;;;;4.90;100.00;102755.50;4975240;28;20941;-43
2024/01/31 01:37:04;;;;;;;42.03;39.50;;;;;;;4.89;100.00;102751.19;4974188;28;20449;-43
2024/01/31 01:39:33;;;;;;;41.93;39.63;;;;;;;4.73;100.00;102761.16;4974084;28;20468;-44
2024/01/31 01:42:01;;;;;;;44.10;41.63;;;;;;;4.69;100.00;102770.28;4974093;28;20805;-43
2024/01/31 01:44:31;;;;;;;47.47;44.50;;;;;;;4.62;100.00;102763.75;4974641;28;20537;-42
2024/01/31 01:47:00;;;;;;;48.30;45.47;;;;;;;4.59;100.00;102782.47;4974436;28;20470;-44
2024/01/31 01:49:28;;;;;;;46.83;43.50;;;;;;;4.54;100.00;102768.75;4973976;28;21013;-43
2024/01/31 01:51:56;;;;;;;46.63;43.33;;;;;;;4.52;100.00;102774.13;4974472;28;20517;-43
2024/01/31 01:54:24;;;;;;;45.30;42.80;;;;;;;4.47;100.00;102766.53;4973715;28;20993;-43
2024/01/31 01:56:54;;;;;;;43.47;40.70;;;;;;;4.48;100.00;102778.75;4973407;28;20806;-42
2024/01/31 01:59:22;;;;;;;39.33;37.13;;;;;;;4.48;100.00;102778.75;4973645;28;20466;-45
2024/01/31 02:01:50;;;;;;;39.60;37.20;;;;;;;4.47;100.00;102781.53;4973725;28;20883;-43
2024/01/31 02:04:18;;;;;;;37.03;34.93;;;;;;;4.46;100.00;102777.19;4972879;28;20540;-42
2024/01/31 02:06:46;;;;;;;35.93;33.80;;;;;;;4.49;100.00;102776.97;4974172;28;20497;-42
2024/01/31 02:09:15;;;;;;;36.57;34.13;;;;;;;4.54;100.00;102772.19;4973740;28;20458;-42
2024/01/31 02:11:42;;;;;;;37.23;34.80;;;;;;;4.54;100.00;102780.13;4973507;28;20501;-42
2024/01/31 02:14:12;;;;;;;34.87;32.50;;;;;;;4.64;100.00;102775.03;4973594;28;20430;-43
2024/01/31 02:16:40;;;;;;;35.03;33.03;;;;;;;4.63;100.00;102779.47;4973357;28;20819;-42
2024/01/31 02:19:08;;;;;;;35.43;33.00;;;;;;;4.63;100.00;102790.03;4971639;28;20466;-42
2024/01/31 02:21:40;;;;;;;35.57;33.17;;;;;;;4.66;100.00;102794.28;4974055;28;20904;-42
2024/01/31 02:24:10;;;;;;;36.50;33.90;;;;;;;4.66;100.00;102797.75;4973039;28;20825;-46
2024/01/31 02:26:38;;;;;;;34.90;32.33;;;;;;;4.68;100.00;102805.59;4973504;28;20439;-43
2024/01/31 02:29:06;;;;;;;33.90;31.70;;;;;;;4.67;100.00;102804.75;4973397;28;20481;-42
2024/01/31 02:31:34;;;;;;;33.77;31.90;;;;;;;4.70;100.00;102807.16;4973310;28;20547;-43
2024/01/31 02:34:02;;;;;;;34.27;31.53;;;;;;;4.79;100.00;102814.44;4973057;28;20482;-43
2024/01/31 02:36:30;;;;;;;35.60;32.40;;;;;;;4.82;100.00;102803.66;4973336;28;20467;-42
2024/01/31 02:38:57;;;;;;;33.20;30.93;;;;;;;4.81;100.00;102809.03;4973100;28;20472;-43
2024/01/31 02:41:27;;;;;;;33.40;31.20;;;;;;;4.83;100.00;102802.72;4973447;28;20505;-44
2024/01/31 02:43:55;;;;;;;35.07;31.60;;;;;;;4.84;100.00;102801.75;4973093;28;20459;-42
2024/01/31 02:46:23;;;;;;;32.17;30.10;;;;;;;4.77;100.00;102808.44;4973402;28;20435;-44
2024/01/31 02:48:51;;;;;;;32.43;30.30;;;;;;;4.74;100.00;102802.53;4972288;28;20435;-42
2024/01/31 02:51:19;;;;;;;32.97;31.07;;;;;;;4.84;100.00;102798.25;4972827;28;20467;-42
2024/01/31 02:53:47;;;;;;;34.67;32.40;;;;;;;4.85;100.00;102800.78;4972939;28;20559;-44
2024/01/31 02:56:14;;;;;;;34.00;31.13;;;;;;;4.89;100.00;102798.78;4973843;28;20883;-42
2024/01/31 02:58:44;;;;;;;34.27;32.10;;;;;;;4.87;100.00;102813.88;4972645;28;20489;-43
2024/01/31 03:01:11;;;;;;;33.43;31.23;;;;;;;4.92;100.00;102814.44;4973653;28;20451;-42
2024/01/31 03:03:39;;;;;;;33.90;31.60;;;;;;;4.92;100.00;102810.00;4972507;28;20498;-42
2024/01/31 03:06:07;;;;;;;34.57;31.90;;;;;;;4.91;100.00;102816.22;4973314;28;20561;-45
2024/01/31 03:08:35;;;;;;;35.87;33.67;;;;;;;4.94;100.00;102817.78;4972250;28;20950;-43
2024/01/31 03:11:03;;;;;;;35.27;32.63;;;;;;;4.92;100.00;102820.56;4964468;28;20459;-43
2024/01/31 03:13:31;;;;;;;33.57;31.33;;;;;;;4.84;100.00;102819.41;4972612;28;20431;-43
2024/01/31 03:16:00;;;;;;;36.10;33.70;;;;;;;4.89;100.00;102822.56;4972715;28;20768;-43
2024/01/31 03:18:28;;;;;;;36.20;33.37;;;;;;;4.93;100.00;102827.53;4973297;28;20435;-43
2024/01/31 03:20:56;;;;;;;30.93;28.93;;;;;;;4.81;100.00;102817.81;4972575;28;20522;-43
2024/01/31 03:23:24;;;;;;;31.60;29.60;;;;;;;4.72;100.00;102821.13;4972704;28;20439;-42
2024/01/31 03:25:51;;;;;;;32.13;29.57;;;;;;;4.75;100.00;102817.44;4972759;28;21038;-43
2024/01/31 03:28:20;;;;;;;34.90;31.70;;;;;;;4.78;100.00;102819.88;4973072;28;20441;-43
2024/01/31 03:30:48;;;;;;;33.70;31.33;;;;;;;4.84;100.00;102811.47;4971748;28;20466;-47
2024/01/31 03:33:17;;;;;;;33.70;31.07;;;;;;;4.87;100.00;102816.53;4972802;28;20435;-42
2024/01/31 03:35:45;;;;;;;34.77;31.83;;;;;;;4.90;100.00;102822.44;4972303;28;20442;-42
2024/01/31 03:38:13;;;;;;;34.40;32.03;;;;;;;4.87;100.00;102829.75;4971515;28;20542;-43
2024/01/31 03:40:41;;;;;;;31.70;29.77;;;;;;;4.85;100.00;102834.31;4970606;28;20473;-48
2024/01/31 03:43:09;;;;;;;37.07;34.43;;;;;;;4.90;100.00;102840.09;4972533;28;20437;-43
2024/01/31 03:45:37;;;;;;;33.23;30.93;;;;;;;4.80;100.00;102842.59;4972168;28;20483;-46
2024/01/31 03:48:05;;;;;;;33.30;30.70;;;;;;;4.70;100.00;102845.97;4964358;28;20530;-44
2024/01/31 03:50:35;;;;;;;31.10;28.30;;;;;;;4.69;100.00;102842.47;4971248;28;20463;-42
2024/01/31 03:53:03;;;;;;;33.70;30.97;;;;;;;4.71;100.00;102843.22;4971616;28;20431;-45
2024/01/31 03:55:32;;;;;;;31.00;28.80;;;;;;;4.69;100.00;102833.72;4972497;28;20431;-44
2024/01/31 03:58:00;;;;;;;32.73;30.00;;;;;;;4.73;100.00;102849.25;4972370;28;20895;-44
2024/01/31 04:00:29;;;;;;;30.83;29.00;;;;;;;4.78;100.00;102844.47;4971674;28;20459;-43
2024/01/31 04:02:57;;;;;;;27.97;26.47;;;;;;;4.85;100.00;102844.88;4972250;28;20465;-44
2024/01/31 04:05:25;;;;;;;31.53;29.30;;;;;;;4.88;100.00;102842.88;4971903;28;20478;-43
2024/01/31 04:07:55;;;;;;;30.60;28.90;;;;;;;4.92;100.00;102852.28;4971003;28;20482;-44
2024/01/31 04:10:23;;;;;;;28.80;27.10;;;;;;;4.82;100.00;102853.88;4971096;28;20546;-43
2024/01/31 04:12:52;;;;;;;29.27;27.30;;;;;;;4.86;100.00;102852.72;4971584;28;20447;-43
2024/01/31 04:15:20;;;;;;;30.20;28.23;;;;;;;4.92;100.00;102848.81;4971890;28;20475;-43
2024/01/31 04:17:48;;;;;;;28.20;26.50;;;;;;;4.91;100.00;102844.44;4970420;28;20442;-43
2024/01/31 04:20:16;;;;;;;30.07;27.97;;;;;;;4.93;100.00;102855.75;4971172;28;20463;-43
2024/01/31 04:22:44;;;;;;;31.60;28.77;;;;;;;4.92;100.00;102859.38;4971633;28;20517;-45
2024/01/31 04:25:13;;;;;;;31.60;29.00;;;;;;;4.91;100.00;102850.59;4971652;28;20481;-47
2024/01/31 04:27:41;;;;;;;30.70;28.13;;;;;;;4.90;100.00;102862.13;4971851;28;20493;-47
2024/01/31 04:30:11;;;;;;;31.60;29.50;;;;;;;4.89;100.00;102863.09;4971251;28;20542;-44
2024/01/31 04:32:39;;;;;;;30.30;27.97;;;;;;;4.90;100.00;102855.97;4971919;28;20454;-43
2024/01/31 04:35:09;;;;;;;32.60;29.60;;;;;;;4.92;100.00;102860.22;4971919;28;20459;-42
2024/01/31 04:37:37;;;;;;;30.03;28.00;;;;;;;4.92;100.00;102865.50;4971469;28;20467;-43
2024/01/31 04:40:07;;;;;;;29.23;27.43;;;;;;;4.95;100.00;102865.28;4971226;28;20466;-44
2024/01/31 04:42:36;;;;;;;31.87;29.17;;;;;;;4.94;100.00;102860.94;4971735;28;20887;-43
2024/01/31 04:45:05;;;;;;;29.77;27.80;;;;;;;4.96;100.00;102859.03;4971562;28;20535;-43
2024/01/31 04:47:33;;;;;;;30.07;27.40;;;;;;;4.94;100.00;102863.59;4970586;28;20521;-46
2024/01/31 04:50:00;;;;;;;29.00;26.50;;;;;;;4.87;100.00;102857.03;4974635;28;20878;-43
2024/01/31 04:52:28;;;;;;;29.40;27.30;;;;;;;4.91;100.00;102862.97;4975052;28;20469;-43
2024/01/31 04:54:56;;;;;;;30.30;27.70;;;;;;;4.95;100.00;102857.38;4974140;28;20445;-44
2024/01/31 04:57:24;;;;;;;29.67;27.70;;;;;;;4.97;100.00;102867.81;4975184;28;20552;-43
2024/01/31 04:59:53;;;;;;;29.47;27.23;;;;;;;5.00;100.00;102864.94;4974577;28;20534;-43
2024/01/31 05:02:24;;;;;;;30.20;28.20;;;;;;;5.00;100.00;102867.59;4974397;28;21025;-46
2024/01/31 05:04:52;;;;;;;30.10;27.60;;;;;;;4.99;100.00;102864.09;4974061;28;20435;-45
2024/01/31 05:07:20;;;;;;;30.00;27.90;;;;;;;5.02;100.00;102863.88;4975340;28;20513;-44
2024/01/31 05:09:48;;;;;;;31.07;28.70;;;;;;;5.03;100.00;102873.53;4974702;28;20465;-45
2024/01/31 05:12:15;;;;;;;31.40;28.60;;;;;;;5.03;100.00;102883.25;4974291;28;20493;-42
2024/01/31 05:14:43;;;;;;;30.90;28.77;;;;;;;5.03;100.00;102892.03;4975402;28;20441;-42
2024/01/31 05:17:15;;;;;;;31.83;29.70;;;;;;;5.00;100.00;102889.59;4975362;28;20993;-43
2024/01/31 05:19:44;;;;;;;30.17;28.37;;;;;;;5.00;100.00;102884.31;4974997;28;20482;-43
2024/01/31 05:22:12;;;;;;;31.97;29.80;;;;;;;5.01;100.00;102890.44;4974797;28;20458;-44
2024/01/31 05:24:41;;;;;;;30.70;28.47;;;;;;;4.98;100.00;102890.66;4973115;28;20989;-43
2024/01/31 05:27:10;;;;;;;31.17;29.00;;;;;;;4.96;100.00;102890.75;4974202;28;20474;-44
2024/01/31 05:29:37;;;;;;;31.27;28.77;;;;;;;4.95;100.00;102888.25;4974335;28;20463;-44
2024/01/31 05:32:06;;;;;;;31.87;29.60;;;;;;;5.00;100.00;102901.97;4974115;28;20482;-43
2024/01/31 05:34:36;;;;;;;31.33;29.17;;;;;;;5.00;100.00;102904.63;4973973;28;20856;-45
2024/01/31 05:37:05;;;;;;;32.47;29.80;;;;;;;5.01;100.00;102906.31;4973906;28;20434;-44
2024/01/31 05:39:33;;;;;;;32.10;29.43;;;;;;;5.02;100.00;102915.91;4973939;28;20473;-43
2024/01/31 05:42:02;;;;;;;31.20;29.10;;;;;;;5.01;100.00;102906.31;4980847;23;20582;-35
2024/01/31 05:44:29;;;;;;;32.93;30.07;;;;;;;4.99;100.00;102909.06;4974479;28;20441;-35
2024/01/31 05:46:57;;;;;;;30.50;28.70;;;;;;;4.95;100.00;102904.97;4958026;28;20475;-35
2024/01/31 05:49:25;;;;;;;31.57;29.50;;;;;;;4.97;100.00;102912.75;4965623;28;20467;-35
2024/01/31 05:51:54;;;;;;;33.60;31.27;;;;;;;4.99;100.00;102917.00;4958432;28;20550;-35
2024/01/31 05:54:22;;;;;;;31.17;28.27;;;;;;;4.98;100.00;102910.03;4974132;28;20530;-36
2024/01/31 05:56:51;;;;;;;32.60;29.93;;;;;;;4.98;100.00;102911.81;4966267;28;20447;-35
2024/01/31 05:59:25;;;;;;;34.40;31.73;;;;;;;4.99;100.00;102909.06;4973754;28;20463;-35
2024/01/31 06:01:53;;;;;;;33.67;31.40;;;;;;;4.95;100.00;102918.19;4964833;28;20470;-35
2024/01/31 06:04:20;;;;;;;34.13;31.77;;;;;;;4.96;100.00;102917.19;4966080;28;20445;-37
2024/01/31 06:06:48;;;;;;;32.40;30.50;;;;;;;4.94;100.00;102929.69;4973566;28;20498;-35
2024/01/31 06:09:18;;;;;;;35.10;32.80;;;;;;;4.97;100.00;102929.47;4966178;28;20522;-37
2024/01/31 06:11:45;;;;;;;34.30;32.30;;;;;;;4.92;100.00;102928.97;4974059;28;20533;-37
2024/01/31 06:14:13;;;;;;;36.20;32.90;;;;;;;4.90;100.00;102930.84;4965756;28;20873;-37
2024/01/31 06:16:41;;;;;;;34.17;31.80;;;;;;;4.91;100.00;102921.97;4973981;28;20834;-35
2024/01/31 06:19:09;;;;;;;35.60;32.73;;;;;;;4.92;100.00;102921.03;4962704;28;20463;-35
2024/01/31 06:21:37;;;;;;;33.80;31.63;;;;;;;4.94;100.00;102932.34;4969440;28;20815;-34
2024/01/31 06:24:05;;;;;;;33.83;31.33;;;;;;;4.89;100.00;102929.19;4970950;28;20966;-36
2024/01/31 06:26:40;;;;;;;33.97;31.67;;;;;;;4.82;100.00;102932.34;4968410;28;20481;-36
2024/01/31 06:29:11;;;;;;;33.97;31.70;;;;;;;4.80;100.00;102939.53;4964773;28;20482;-36
2024/01/31 06:31:46;;;;;;;33.30;30.70;;;;;;;4.76;100.00;102949.47;4974110;28;20641;-36
2024/01/31 06:34:14;;;;;;;35.17;32.47;;;;;;;4.76;100.00;102944.19;4958216;28;20470;-36
2024/01/31 06:36:42;;;;;;;34.13;31.70;;;;;;;4.73;100.00;102948.81;4965841;28;20439;-40
2024/01/31 06:39:10;;;;;;;35.53;33.23;;;;;;;4.66;100.00;102935.19;4964526;28;20462;-36
2024/01/31 06:41:39;;;;;;;34.40;31.90;;;;;;;4.62;100.00;102935.50;4958532;28;20476;-37
2024/01/31 06:44:07;;;;;;;35.17;32.53;;;;;;;4.54;100.00;102937.84;4953245;28;20985;-36
2024/01/31 06:46:35;;;;;;;33.87;31.80;;;;;;;4.49;100.00;102935.50;4960193;28;20561;-36
2024/01/31 06:49:03;;;;;;;32.43;30.30;;;;;;;4.48;100.00;102941.72;4962730;28;20830;-36
2024/01/31 06:51:32;;;;;;;33.13;31.00;;;;;;;4.47;100.00;102951.47;4966790;28;20799;-36
2024/01/31 06:54:00;;;;;;;35.93;32.23;;;;;;;4.46;100.00;102946.25;4963174;28;20446;-34
2024/01/31 06:56:27;;;;;;;32.73;30.63;;;;;;;4.45;100.00;102945.41;4954083;28;20436;-36
2024/01/31 06:58:56;;;;;;;33.33;31.13;;;;;;;4.45;100.00;102934.84;4953322;28;20613;-36
2024/01/31 07:01:26;;;;;;;34.90;32.60;;;;;;;4.45;100.00;102942.78;4954015;28;20452;-37
2024/01/31 07:03:55;;;;;;;32.97;30.70;;;;;;;4.43;100.00;102934.13;4953620;28;20440;-37
2024/01/31 07:06:22;;;;;;;32.80;30.37;;;;;;;4.43;100.00;102938.53;4954074;28;21010;-37
2024/01/31 07:08:50;;;;;;;34.37;31.80;;;;;;;4.41;100.00;102925.47;4953800;28;20494;-36
2024/01/31 07:11:18;;;;;;;34.17;31.27;;;;;;;4.39;100.00;102939.72;4953624;28;20494;-37
2024/01/31 07:13:46;;;;;;;34.17;31.80;;;;;;;4.36;100.00;102937.28;4961085;28;20674;-35
2024/01/31 07:16:15;;;;;;;36.50;33.90;;;;;;;4.34;100.00;102933.88;4972737;28;20435;-36
2024/01/31 07:18:44;;;;;;;35.73;33.27;;;;;;;4.31;100.00;102910.31;4957612;28;20519;-37
2024/01/31 07:21:12;;;;;;;34.70;32.27;;;;;;;4.29;100.00;102928.91;4963234;28;20447;-36
2024/01/31 07:23:43;;;;;;;34.03;31.10;;;;;;;4.25;100.00;102945.91;4957957;28;20436;-36
2024/01/31 07:26:21;;;;;;;34.83;32.47;;;;;;;4.25;100.00;102950.34;4953352;28;20451;-37
2024/01/31 07:28:50;;;;;;;34.10;31.93;;;;;;;4.22;100.00;102954.03;4952427;28;20479;-36
2024/01/31 07:31:19;;;;;;;34.60;32.13;;;;;;;4.23;100.00;102962.81;4956294;28;20473;-34
2024/01/31 07:33:47;;;;;;;36.13;33.20;;;;;;;4.26;100.00;102976.66;4972674;28;20438;-36
2024/01/31 07:36:15;;;;;;;39.17;36.00;;;;;;;4.29;100.00;102973.81;4969648;28;20494;-36
2024/01/31 07:38:44;;;;;;;35.67;33.43;;;;;;;4.31;100.00;102976.34;4968377;28;20435;-36
2024/01/31 07:41:12;;;;;;;36.57;33.50;;;;;;;4.35;100.00;102980.50;4961805;28;20986;-37
2024/01/31 07:43:41;;;;;;;33.93;31.63;;;;;;;4.36;100.00;102974.28;4961009;28;20439;-37
2024/01/31 07:46:11;;;;;;;33.53;31.07;;;;;;;4.39;100.00;102976.72;4953085;28;20447;-36
2024/01/31 07:48:40;;;;;;;33.87;31.33;;;;;;;4.42;100.00;102963.28;4958906;28;20501;-36
2024/01/31 07:51:08;;;;;;;30.80;29.03;;;;;;;4.40;100.00;102955.47;4972567;28;20462;-36
2024/01/31 07:53:37;;;;;;;32.83;30.07;;;;;;;4.44;100.00;102958.75;4972395;28;20462;-36
2024/01/31 07:56:05;;;;;;;31.70;29.80;;;;;;;4.43;100.00;102960.53;4954856;28;21127;-36
2024/01/31 07:58:33;;;;;;;32.17;30.13;;;;;;;4.45;100.00;102936.63;4952879;28;20527;-36
2024/01/31 08:01:02;;;;;;;32.23;30.23;;;;;;;4.42;100.00;102931.59;4952389;28;20472;-38
2024/01/31 08:03:30;;;;;;;31.80;29.80;;;;;;;4.42;100.00;102947.44;4952976;28;20532;-36
2024/01/31 08:06:00;;;;;;;33.73;31.30;;;;;;;4.38;100.00;102953.88;4953192;28;20436;-36
2024/01/31 08:08:28;;;;;;;32.20;30.40;;;;;;;4.41;100.00;102958.94;4952901;28;20476;-36
2024/01/31 08:10:57;;;;;;;33.93;31.00;;;;;;;4.48;100.00;102958.41;4960859;28;20466;-36
2024/01/31 08:13:25;;;;;;;33.00;30.80;;;;;;;4.48;100.00;102962.84;4967475;28;20969;-36
2024/01/31 08:15:53;;;;;;;32.37;30.13;;;;;;;4.55;100.00;102971.22;4969107;28;20442;-37
2024/01/31 08:18:21;;;;;;;33.80;31.63;;;;;;;4.55;100.00;102960.66;4960524;28;21030;-36
2024/01/31 08:20:49;;;;;;;31.37;29.40;;;;;;;4.61;100.00;102963.72;4952524;28;20475;-37
2024/01/31 08:23:18;;;;;;;32.37;30.57;;;;;;;4.71;100.00;102967.44;4953096;28;20432;-36
2024/01/31 08:25:46;;;;;;;33.67;31.47;;;;;;;4.74;100.00;102972.53;4956911;28;20444;-36
2024/01/31 08:28:14;;;;;;;32.33;30.40;;;;;;;4.81;100.00;102972.94;4964866;28;20480;-36
2024/01/31 08:30:42;;;;;;;32.87;30.97;;;;;;;4.90;100.00;102967.88;4970391;28;20462;-36
2024/01/31 08:33:09;;;;;;;33.23;31.10;;;;;;;4.97;100.00;102963.00;4963904;28;20446;-38
2024/01/31 08:35:38;;;;;;;34.30;31.70;;;;;;;5.03;100.00;102952.00;4964879;28;20439;-36
2024/01/31 08:38:05;;;;;;;34.80;32.20;;;;;;;5.07;100.00;102955.28;4956554;28;20432;-36
2024/01/31 08:40:34;;;;;;;34.23;32.20;;;;;;;5.07;100.00;102953.50;4969073;28;20986;-37
2024/01/31 08:43:03;;;;;;;35.67;33.00;;;;;;;5.18;100.00;102955.38;4967725;28;20467;-36
2024/01/31 08:45:31;;;;;;;34.23;31.93;;;;;;;5.21;100.00;102956.00;4967436;28;20489;-36
2024/01/31 08:47:59;;;;;;;34.87;32.67;;;;;;;5.24;100.00;102952.28;4967162;28;20514;-36
2024/01/31 08:50:27;;;;;;;33.50;31.27;;;;;;;5.32;100.00;102956.09;4968365;28;20895;-36
2024/01/31 08:52:55;;;;;;;32.70;30.83;;;;;;;5.45;100.00;102942.84;4967613;28;20439;-37
2024/01/31 08:55:23;;;;;;;34.20;31.67;;;;;;;5.52;100.00;102946.75;4968280;28;20435;-37
2024/01/31 08:57:52;;;;;;;33.77;30.77;;;;;;;5.53;100.00;102951.91;4975515;28;20435;-36
2024/01/31 09:00:20;;;;;;;33.03;30.87;;;;;;;5.50;100.00;102954.78;4975207;28;20848;-37
2024/01/31 09:02:48;;;;;;;32.93;31.00;;;;;;;5.52;100.00;102954.69;4975648;28;20843;-37
2024/01/31 09:05:16;;;;;;;34.30;31.60;;;;;;;5.59;100.00;102961.19;4974997;28;20842;-38
2024/01/31 09:07:44;;;;;;;33.17;31.17;;;;;;;5.67;100.00;102960.66;4968901;28;20486;-36
2024/01/31 09:10:12;;;;;;;34.00;31.70;;;;;;;5.69;100.00;102948.16;4957970;28;20551;-36
2024/01/31 09:12:40;;;;;;;33.27;30.83;;;;;;;5.70;100.00;102948.06;4968310;28;20471;-36
2024/01/31 09:15:10;;;;;;;32.93;31.17;;;;;;;5.81;100.00;102937.53;4955642;28;20808;-37
2024/01/31 09:17:38;;;;;;;32.37;30.77;;;;;;;5.89;100.00;102926.38;4968921;28;20900;-36
2024/01/31 09:20:06;;;;;;;34.83;32.70;;;;;;;6.03;100.00;102913.00;4974899;28;20489;-37
2024/01/31 09:22:34;;;;;;;35.07;32.77;;;;;;;6.08;100.00;102918.78;4975000;28;20435;-37
2024/01/31 09:25:03;;;;;;;33.20;31.23;;;;;;;6.14;100.00;102913.03;4975107;28;20497;-36
2024/01/31 09:27:31;;;;;;;33.93;32.10;;;;;;;6.12;100.00;102907.00;4974937;28;20438;-37
2024/01/31 09:29:59;;;;;;;33.27;31.20;;;;;;;6.24;100.00;102902.59;4974517;28;20501;-37
2024/01/31 09:32:28;;;;;;;33.70;31.40;;;;;;;6.27;100.00;102900.56;4962137;28;20521;-37
2024/01/31 09:34:56;;;;;;;33.43;31.20;;;;;;;6.20;100.00;102912.56;4955514;28;20470;-36
2024/01/31 09:37:24;;;;;;;32.77;30.67;;;;;;;6.29;100.00;102916.31;4963738;28;20508;-37
2024/01/31 09:39:54;;;;;;;32.43;30.20;;;;;;;6.32;100.00;102916.94;4954517;28;20903;-38
2024/01/31 09:42:22;;;;;;;31.93;30.17;;;;;;;6.43;100.00;102910.81;4963198;28;20463;-38
2024/01/31 09:44:51;;;;;;;32.53;30.20;;;;;;;6.41;100.00;102912.75;4963215;28;20530;-38
2024/01/31 09:47:20;;;;;;;32.80;30.27;;;;;;;6.46;100.00;102924.69;4962913;28;20852;-37
2024/01/31 09:49:49;;;;;;;30.60;28.77;;;;;;;6.41;100.00;102913.59;4963170;28;20475;-36
2024/01/31 09:52:18;;;;;;;31.53;29.70;;;;;;;6.45;100.00;102900.97;4957578;28;20466;-36
2024/01/31 09:54:47;;;;;;;31.90;29.90;;;;;;;6.46;100.00;102897.31;4974368;28;20463;-39
2024/01/31 09:57:15;;;;;;;33.40;30.67;;;;;;;6.52;100.00;102895.06;4974910;28;20526;-37
2024/01/31 09:59:43;;;;;;;33.27;31.17;;;;;;;6.53;100.00;102904.72;4973957;28;20459;-37
2024/01/31 10:02:11;;;;;;;30.97;29.13;;;;;;;6.48;100.00;102895.41;4958524;28;20522;-37
2024/01/31 10:04:39;;;;;;;29.63;27.97;;;;;;;6.39;100.00;102894.28;4974022;28;20502;-37
2024/01/31 10:07:09;;;;;;;30.10;28.17;;;;;;;6.44;100.00;102899.25;4974647;28;20977;-37
2024/01/31 10:09:37;;;;;;;28.10;26.80;;;;;;;6.40;100.00;102898.66;4960318;28;20456;-37
2024/01/31 10:12:05;;;;;;;29.77;27.80;;;;;;;6.48;100.00;102895.41;4954810;28;20459;-37
2024/01/31 10:14:33;;;;;;;27.97;26.27;;;;;;;6.37;100.00;102885.63;4954569;28;20436;-37
2024/01/31 10:17:02;;;;;;;29.13;27.47;;;;;;;6.39;100.00;102886.34;4962893;28;20864;-37
2024/01/31 10:19:30;;;;;;;27.73;26.17;;;;;;;6.45;100.00;102893.00;4954503;28;20464;-37
2024/01/31 10:21:58;;;;;;;30.30;28.40;;;;;;;6.49;100.00;102881.19;4954732;28;20460;-37
2024/01/31 10:24:28;;;;;;;28.33;26.80;;;;;;;6.44;100.00;102891.31;4954182;28;20526;-37
2024/01/31 10:26:56;;;;;;;27.90;26.60;;;;;;;6.53;100.00;102891.44;4954993;28;20446;-37
2024/01/31 10:29:24;;;;;;;29.10;27.40;;;;;;;6.59;100.00;102887.47;4965476;28;20473;-37
2024/01/31 10:31:53;;;;;;;28.63;25.73;;;;;;;6.49;100.00;102890.00;4973641;28;20493;-36
2024/01/31 10:34:23;;;;;;;28.50;26.80;;;;;;;6.52;100.00;102888.91;4972708;28;21034;-37
2024/01/31 10:37:06;;;;;;;28.63;27.17;;;;;;;6.58;100.00;102881.31;4965503;28;20439;-36
2024/01/31 10:39:55;;;;;;;28.40;26.63;;;;;;;6.51;100.00;102881.94;4973353;28;20470;-38
2024/01/31 10:42:23;;;;;;;27.10;25.50;;;;;;;6.56;100.00;102885.06;4973385;28;20455;-37
2024/01/31 10:44:52;;;;;;;28.83;26.30;;;;;;;6.58;100.00;102888.44;4965626;28;20444;-37
2024/01/31 10:47:20;;;;;;;26.13;24.70;;;;;;;6.44;100.00;102883.34;4964275;28;20502;-35
2024/01/31 10:49:48;;;;;;;27.60;25.30;;;;;;;6.41;100.00;102889.75;4965029;28;20554;-35
2024/01/31 10:52:21;;;;;;;27.33;25.20;;;;;;;6.48;100.00;102890.13;4965131;28;20478;-35
2024/01/31 10:54:54;;;;;;;27.90;26.00;;;;;;;6.52;100.00;102892.41;4967792;28;20439;-37
2024/01/31 10:57:24;;;;;;;29.17;25.83;;;;;;;6.41;100.00;102879.13;4954119;28;20473;-35
2024/01/31 10:59:51;;;;;;;27.73;25.83;;;;;;;6.36;100.00;102883.94;4953262;28;20555;-36
2024/01/31 11:02:20;;;;;;;27.97;26.13;;;;;;;6.29;100.00;102884.53;4956057;28;20460;-35
2024/01/31 11:04:48;;;;;;;28.50;26.73;;;;;;;6.20;100.00;102895.81;4972657;28;20435;-35
2024/01/31 11:07:18;;;;;;;28.87;26.73;;;;;;;6.09;100.00;102876.28;4973315;28;20513;-35
2024/01/31 11:09:47;;;;;;;29.10;26.53;;;;;;;6.11;100.00;102873.53;4972564;28;20467;-35
2024/01/31 11:12:17;;;;;;;28.13;26.63;;;;;;;6.05;100.00;102873.97;4972966;28;20828;-35
2024/01/31 11:14:47;;;;;;;29.50;27.57;;;;;;;5.98;100.00;102863.00;4972979;28;20509;-35